sensor_id;sensor_type;location;lat;lon;timestamp;temperature;humidity
20481;DHT22;10399;50.754;3.366;2023-04-03T00:02:02;5.60;99.90
20481;DHT22;10399;50.754;3.366;2023-04-03T00:04:31;5.40;99.90
20481;DHT22;10399;50.754;3.366;2023-04-03T00:06:58;5.50;99.90
20481;DHT22;10399;50.754;3.366;2023-04-03T00:09:25;5.50;99.90
20481;DHT22;10399;50.754;3.366;2023-04-03T00:11:52;5.60;99.90
20481;DHT22;10399;50.754;3.366;2023-04-03T00:14:19;5.60;99.90
20481;DHT22;10399;50.754;3.366;2023-04-03T00:16:46;5.80;99.90
20481;DHT22;10399;50.754;3.366;2023-04-03T00:19:13;5.80;99.90
20481;DHT22;10399;50.754;3.366;2023-04-03T00:21:40;5.80;99.90
20481;DHT22;10399;50.754;3.366;2023-04-03T00:24:07;5.80;99.90
20481;DHT22;10399;50.754;3.366;2023-04-03T00:26:34;5.90;99.90
20481;DHT22;10399;50.754;3.366;2023-04-03T00:29:01;5.90;99.90
20481;DHT22;10399;50.754;3.366;2023-04-03T00:31:28;5.90;99.90
20481;DHT22;10399;50.754;3.366;2023-04-03T00:33:55;5.70;99.90
20481;DHT22;10399;50.754;3.366;2023-04-03T00:36:22;5.70;99.90
20481;DHT22;10399;50.754;3.366;2023-04-03T00:38:49;5.70;99.90
20481;DHT22;10399;50.754;3.366;2023-04-03T00:41:16;5.60;99.90
20481;DHT22;10399;50.754;3.366;2023-04-03T00:43:43;5.60;99.90
20481;DHT22;10399;50.754;3.366;2023-04-03T00:46:10;5.80;99.90
20481;DHT22;10399;50.754;3.366;2023-04-03T00:48:41;5.80;99.90
20481;DHT22;10399;50.754;3.366;2023-04-03T00:51:12;5.80;99.90
20481;DHT22;10399;50.754;3.366;2023-04-03T00:53:52;5.80;99.90
20481;DHT22;10399;50.754;3.366;2023-04-03T00:56:23;5.80;99.90
20481;DHT22;10399;50.754;3.366;2023-04-03T00:59:06;5.90;99.90
20481;DHT22;10399;50.754;3.366;2023-04-03T01:01:35;5.90;99.90
20481;DHT22;10399;50.754;3.366;2023-04-03T01:04:04;6.00;99.90
20481;DHT22;10399;50.754;3.366;2023-04-03T01:06:36;5.90;99.90
20481;DHT22;10399;50.754;3.366;2023-04-03T01:09:04;5.80;99.90
20481;DHT22;10399;50.754;3.366;2023-04-03T01:11:32;5.60;99.90
20481;DHT22;10399;50.754;3.366;2023-04-03T01:13:59;5.60;99.90
20481;DHT22;10399;50.754;3.366;2023-04-03T01:16:28;5.60;99.90
20481;DHT22;10399;50.754;3.366;2023-04-03T01:18:59;5.60;99.90
20481;DHT22;10399;50.754;3.366;2023-04-03T01:24:38;5.80;99.90
20481;DHT22;10399;50.754;3.366;2023-04-03T01:27:07;5.80;99.90
20481;DHT22;10399;50.754;3.366;2023-04-03T01:29:36;5.90;99.90
20481;DHT22;10399;50.754;3.366;2023-04-03T01:32:03;5.90;99.90
20481;DHT22;10399;50.754;3.366;2023-04-03T01:34:31;5.80;99.90
20481;DHT22;10399;50.754;3.366;2023-04-03T01:36:58;5.80;99.90
20481;DHT22;10399;50.754;3.366;2023-04-03T01:39:25;5.70;99.90
20481;DHT22;10399;50.754;3.366;2023-04-03T01:41:52;5.60;99.90
20481;DHT22;10399;50.754;3.366;2023-04-03T01:44:20;5.70;99.90
20481;DHT22;10399;50.754;3.366;2023-04-03T01:46:47;5.70;99.90
20481;DHT22;10399;50.754;3.366;2023-04-03T01:49:14;5.70;99.90
20481;DHT22;10399;50.754;3.366;2023-04-03T01:51:41;5.80;99.90
20481;DHT22;10399;50.754;3.366;2023-04-03T01:54:08;5.80;99.90
20481;DHT22;10399;50.754;3.366;2023-04-03T01:56:35;5.80;99.90
20481;DHT22;10399;50.754;3.366;2023-04-03T01:59:02;5.70;99.90
20481;DHT22;10399;50.754;3.366;2023-04-03T02:01:29;5.70;99.90
20481;DHT22;10399;50.754;3.366;2023-04-03T02:03:56;5.70;99.90
20481;DHT22;10399;50.754;3.366;2023-04-03T02:06:23;5.70;99.90
20481;DHT22;10399;50.754;3.366;2023-04-03T02:08:50;5.70;99.90
20481;DHT22;10399;50.754;3.366;2023-04-03T02:11:17;5.70;99.90
20481;DHT22;10399;50.754;3.366;2023-04-03T02:13:44;5.70;99.90
20481;DHT22;10399;50.754;3.366;2023-04-03T02:16:11;5.60;99.90
20481;DHT22;10399;50.754;3.366;2023-04-03T02:18:39;5.70;99.90
20481;DHT22;10399;50.754;3.366;2023-04-03T02:21:06;5.60;99.90
20481;DHT22;10399;50.754;3.366;2023-04-03T02:23:33;5.60;99.90
20481;DHT22;10399;50.754;3.366;2023-04-03T02:26:04;5.60;99.90
20481;DHT22;10399;50.754;3.366;2023-04-03T02:28:32;5.60;99.90
20481;DHT22;10399;50.754;3.366;2023-04-03T02:30:59;5.70;99.90
20481;DHT22;10399;50.754;3.366;2023-04-03T02:33:26;5.70;99.90
20481;DHT22;10399;50.754;3.366;2023-04-03T02:35:54;5.70;99.90
20481;DHT22;10399;50.754;3.366;2023-04-03T02:38:22;5.70;99.90
20481;DHT22;10399;50.754;3.366;2023-04-03T02:40:50;5.60;99.90
20481;DHT22;10399;50.754;3.366;2023-04-03T02:43:18;5.50;99.90
20481;DHT22;10399;50.754;3.366;2023-04-03T02:45:45;5.30;99.90
20481;DHT22;10399;50.754;3.366;2023-04-03T02:48:12;5.30;99.90
20481;DHT22;10399;50.754;3.366;2023-04-03T02:50:41;5.20;99.90
20481;DHT22;10399;50.754;3.366;2023-04-03T02:53:08;5.30;99.90
20481;DHT22;10399;50.754;3.366;2023-04-03T02:55:35;5.30;99.90
20481;DHT22;10399;50.754;3.366;2023-04-03T02:58:02;5.30;99.90
20481;DHT22;10399;50.754;3.366;2023-04-03T03:00:30;5.30;99.90
20481;DHT22;10399;50.754;3.366;2023-04-03T03:03:00;5.30;99.90
20481;DHT22;10399;50.754;3.366;2023-04-03T03:05:28;5.30;99.90
20481;DHT22;10399;50.754;3.366;2023-04-03T03:07:58;5.40;99.90
20481;DHT22;10399;50.754;3.366;2023-04-03T03:10:26;5.30;99.90
20481;DHT22;10399;50.754;3.366;2023-04-03T03:12:53;5.20;99.90
20481;DHT22;10399;50.754;3.366;2023-04-03T03:15:20;5.20;99.90
20481;DHT22;10399;50.754;3.366;2023-04-03T03:17:47;5.10;99.90
20481;DHT22;10399;50.754;3.366;2023-04-03T03:20:14;4.90;99.90
20481;DHT22;10399;50.754;3.366;2023-04-03T03:22:41;4.90;99.90
20481;DHT22;10399;50.754;3.366;2023-04-03T03:25:09;4.80;99.90
20481;DHT22;10399;50.754;3.366;2023-04-03T03:27:36;5.00;99.90
20481;DHT22;10399;50.754;3.366;2023-04-03T03:30:03;5.00;99.90
20481;DHT22;10399;50.754;3.366;2023-04-03T03:32:31;5.10;99.90
20481;DHT22;10399;50.754;3.366;2023-04-03T03:34:58;5.20;99.90
20481;DHT22;10399;50.754;3.366;2023-04-03T03:37:24;5.00;99.90
20481;DHT22;10399;50.754;3.366;2023-04-03T03:39:51;5.20;99.90
20481;DHT22;10399;50.754;3.366;2023-04-03T03:42:18;5.10;99.90
20481;DHT22;10399;50.754;3.366;2023-04-03T03:44:45;5.00;99.90
20481;DHT22;10399;50.754;3.366;2023-04-03T03:47:12;4.70;99.90
20481;DHT22;10399;50.754;3.366;2023-04-03T03:49:39;4.90;99.90
20481;DHT22;10399;50.754;3.366;2023-04-03T03:52:06;4.90;99.90
20481;DHT22;10399;50.754;3.366;2023-04-03T03:54:33;4.90;99.90
20481;DHT22;10399;50.754;3.366;2023-04-03T03:56:59;4.90;99.90
20481;DHT22;10399;50.754;3.366;2023-04-03T03:59:27;5.00;99.90
20481;DHT22;10399;50.754;3.366;2023-04-03T04:01:54;4.90;99.90
20481;DHT22;10399;50.754;3.366;2023-04-03T04:04:21;5.00;99.90
20481;DHT22;10399;50.754;3.366;2023-04-03T04:06:48;4.80;99.90
20481;DHT22;10399;50.754;3.366;2023-04-03T04:09:15;4.90;99.90
20481;DHT22;10399;50.754;3.366;2023-04-03T04:11:42;4.80;99.90
20481;DHT22;10399;50.754;3.366;2023-04-03T04:14:09;4.80;99.90
20481;DHT22;10399;50.754;3.366;2023-04-03T04:16:39;4.70;99.90
20481;DHT22;10399;50.754;3.366;2023-04-03T04:19:06;4.70;99.90
20481;DHT22;10399;50.754;3.366;2023-04-03T04:21:34;4.70;99.90
20481;DHT22;10399;50.754;3.366;2023-04-03T04:24:01;4.60;99.90
20481;DHT22;10399;50.754;3.366;2023-04-03T04:26:29;4.40;99.90
20481;DHT22;10399;50.754;3.366;2023-04-03T04:28:56;4.40;99.90
20481;DHT22;10399;50.754;3.366;2023-04-03T04:31:23;4.40;99.90
20481;DHT22;10399;50.754;3.366;2023-04-03T04:33:50;4.40;99.90
20481;DHT22;10399;50.754;3.366;2023-04-03T04:36:17;4.30;99.90
20481;DHT22;10399;50.754;3.366;2023-04-03T04:38:44;4.20;99.90
20481;DHT22;10399;50.754;3.366;2023-04-03T04:41:11;4.20;99.90
20481;DHT22;10399;50.754;3.366;2023-04-03T04:43:38;4.20;99.90
20481;DHT22;10399;50.754;3.366;2023-04-03T04:46:07;4.30;99.90
20481;DHT22;10399;50.754;3.366;2023-04-03T04:48:35;4.30;99.90
20481;DHT22;10399;50.754;3.366;2023-04-03T04:51:03;4.30;99.90
20481;DHT22;10399;50.754;3.366;2023-04-03T04:53:30;4.40;99.90
20481;DHT22;10399;50.754;3.366;2023-04-03T04:55:57;4.40;99.90
20481;DHT22;10399;50.754;3.366;2023-04-03T04:58:24;4.50;99.90
20481;DHT22;10399;50.754;3.366;2023-04-03T05:01:03;4.50;99.90
20481;DHT22;10399;50.754;3.366;2023-04-03T05:03:30;4.50;99.90
20481;DHT22;10399;50.754;3.366;2023-04-03T05:05:57;4.50;99.90
20481;DHT22;10399;50.754;3.366;2023-04-03T05:08:24;4.50;99.90
20481;DHT22;10399;50.754;3.366;2023-04-03T05:10:51;4.50;99.90
20481;DHT22;10399;50.754;3.366;2023-04-03T05:13:21;4.40;99.90
20481;DHT22;10399;50.754;3.366;2023-04-03T05:15:48;4.40;99.90
20481;DHT22;10399;50.754;3.366;2023-04-03T05:18:15;4.40;99.90
20481;DHT22;10399;50.754;3.366;2023-04-03T05:20:42;4.40;99.90
20481;DHT22;10399;50.754;3.366;2023-04-03T05:23:10;4.30;99.90
20481;DHT22;10399;50.754;3.366;2023-04-03T05:25:38;4.30;99.90
20481;DHT22;10399;50.754;3.366;2023-04-03T05:28:06;4.30;99.90
20481;DHT22;10399;50.754;3.366;2023-04-03T05:30:33;4.30;99.90
20481;DHT22;10399;50.754;3.366;2023-04-03T05:33:00;4.40;99.90
20481;DHT22;10399;50.754;3.366;2023-04-03T05:35:27;4.40;99.90
20481;DHT22;10399;50.754;3.366;2023-04-03T05:37:55;4.50;99.90
20481;DHT22;10399;50.754;3.366;2023-04-03T05:40:22;4.60;99.90
20481;DHT22;10399;50.754;3.366;2023-04-03T05:42:49;4.50;99.90
20481;DHT22;10399;50.754;3.366;2023-04-03T05:45:16;4.50;99.90
20481;DHT22;10399;50.754;3.366;2023-04-03T05:47:43;4.50;99.90
20481;DHT22;10399;50.754;3.366;2023-04-03T05:50:10;4.50;99.90
20481;DHT22;10399;50.754;3.366;2023-04-03T05:52:40;4.70;99.90
20481;DHT22;10399;50.754;3.366;2023-04-03T05:55:09;4.70;99.90
20481;DHT22;10399;50.754;3.366;2023-04-03T05:57:36;4.70;99.90
20481;DHT22;10399;50.754;3.366;2023-04-03T06:00:08;4.70;99.90
20481;DHT22;10399;50.754;3.366;2023-04-03T06:02:37;4.70;99.90
20481;DHT22;10399;50.754;3.366;2023-04-03T06:05:05;4.60;99.90
20481;DHT22;10399;50.754;3.366;2023-04-03T06:07:34;4.80;99.90
20481;DHT22;10399;50.754;3.366;2023-04-03T06:10:02;4.70;99.90
20481;DHT22;10399;50.754;3.366;2023-04-03T06:12:29;4.70;99.90
20481;DHT22;10399;50.754;3.366;2023-04-03T06:14:56;4.90;99.90
20481;DHT22;10399;50.754;3.366;2023-04-03T06:17:24;4.90;99.90
20481;DHT22;10399;50.754;3.366;2023-04-03T06:19:51;5.10;99.90
20481;DHT22;10399;50.754;3.366;2023-04-03T06:22:18;5.10;99.90
20481;DHT22;10399;50.754;3.366;2023-04-03T06:24:45;5.10;99.90
20481;DHT22;10399;50.754;3.366;2023-04-03T06:27:12;5.10;99.90
20481;DHT22;10399;50.754;3.366;2023-04-03T06:29:39;5.00;99.90
20481;DHT22;10399;50.754;3.366;2023-04-03T06:32:06;5.10;99.90
20481;DHT22;10399;50.754;3.366;2023-04-03T06:34:33;5.20;99.90
20481;DHT22;10399;50.754;3.366;2023-04-03T06:37:00;5.20;99.90
20481;DHT22;10399;50.754;3.366;2023-04-03T06:39:27;5.30;99.90
20481;DHT22;10399;50.754;3.366;2023-04-03T06:41:55;5.30;99.90
20481;DHT22;10399;50.754;3.366;2023-04-03T06:44:22;5.40;99.90
20481;DHT22;10399;50.754;3.366;2023-04-03T06:46:50;5.50;99.90
20481;DHT22;10399;50.754;3.366;2023-04-03T06:49:18;5.60;99.90
20481;DHT22;10399;50.754;3.366;2023-04-03T06:51:45;5.60;99.90
20481;DHT22;10399;50.754;3.366;2023-04-03T06:54:12;5.70;99.90
20481;DHT22;10399;50.754;3.366;2023-04-03T06:56:39;5.80;99.90
20481;DHT22;10399;50.754;3.366;2023-04-03T06:59:11;5.90;99.90
20481;DHT22;10399;50.754;3.366;2023-04-03T07:01:39;6.00;99.90
20481;DHT22;10399;50.754;3.366;2023-04-03T07:04:07;6.10;99.90
20481;DHT22;10399;50.754;3.366;2023-04-03T07:06:34;6.20;99.90
20481;DHT22;10399;50.754;3.366;2023-04-03T07:09:02;6.20;99.90
20481;DHT22;10399;50.754;3.366;2023-04-03T07:11:29;6.20;99.90
20481;DHT22;10399;50.754;3.366;2023-04-03T07:13:57;6.30;99.90
20481;DHT22;10399;50.754;3.366;2023-04-03T07:16:24;6.50;99.90
20481;DHT22;10399;50.754;3.366;2023-04-03T07:18:51;6.60;99.90
20481;DHT22;10399;50.754;3.366;2023-04-03T07:21:19;6.60;99.90
20481;DHT22;10399;50.754;3.366;2023-04-03T07:23:46;6.80;99.90
20481;DHT22;10399;50.754;3.366;2023-04-03T07:26:13;6.90;99.90
20481;DHT22;10399;50.754;3.366;2023-04-03T07:28:40;6.80;99.90
20481;DHT22;10399;50.754;3.366;2023-04-03T07:31:11;6.90;99.90
20481;DHT22;10399;50.754;3.366;2023-04-03T07:33:41;6.80;99.90
20481;DHT22;10399;50.754;3.366;2023-04-03T07:36:09;6.90;99.90
20481;DHT22;10399;50.754;3.366;2023-04-03T07:38:37;7.10;99.90
20481;DHT22;10399;50.754;3.366;2023-04-03T07:41:04;7.20;99.90
20481;DHT22;10399;50.754;3.366;2023-04-03T07:43:32;7.40;99.90
20481;DHT22;10399;50.754;3.366;2023-04-03T07:46:00;7.30;99.90
20481;DHT22;10399;50.754;3.366;2023-04-03T07:48:27;7.30;99.90
20481;DHT22;10399;50.754;3.366;2023-04-03T07:50:59;7.50;99.90
20481;DHT22;10399;50.754;3.366;2023-04-03T07:53:26;7.60;99.90
20481;DHT22;10399;50.754;3.366;2023-04-03T07:55:53;7.70;99.90
20481;DHT22;10399;50.754;3.366;2023-04-03T07:58:22;8.10;99.90
20481;DHT22;10399;50.754;3.366;2023-04-03T08:00:49;8.20;99.90
20481;DHT22;10399;50.754;3.366;2023-04-03T08:03:17;8.40;99.90
20481;DHT22;10399;50.754;3.366;2023-04-03T08:05:46;8.60;99.90
20481;DHT22;10399;50.754;3.366;2023-04-03T08:08:16;8.80;99.90
20481;DHT22;10399;50.754;3.366;2023-04-03T08:10:54;9.10;99.90
20481;DHT22;10399;50.754;3.366;2023-04-03T08:13:21;9.20;99.90
20481;DHT22;10399;50.754;3.366;2023-04-03T08:15:49;9.20;99.90
20481;DHT22;10399;50.754;3.366;2023-04-03T08:18:16;9.30;99.90
20481;DHT22;10399;50.754;3.366;2023-04-03T08:20:43;9.40;99.90
20481;DHT22;10399;50.754;3.366;2023-04-03T08:23:11;9.70;99.90
20481;DHT22;10399;50.754;3.366;2023-04-03T08:25:41;9.90;99.90
20481;DHT22;10399;50.754;3.366;2023-04-03T08:28:10;10.10;99.90
20481;DHT22;10399;50.754;3.366;2023-04-03T08:30:41;10.20;99.90
20481;DHT22;10399;50.754;3.366;2023-04-03T08:33:09;10.40;99.90
20481;DHT22;10399;50.754;3.366;2023-04-03T08:35:41;10.60;99.90
20481;DHT22;10399;50.754;3.366;2023-04-03T08:38:09;10.80;99.90
20481;DHT22;10399;50.754;3.366;2023-04-03T08:40:38;10.60;99.90
20481;DHT22;10399;50.754;3.366;2023-04-03T08:43:19;11.00;99.90
20481;DHT22;10399;50.754;3.366;2023-04-03T08:45:55;11.40;99.90
20481;DHT22;10399;50.754;3.366;2023-04-03T08:48:29;11.70;99.90
20481;DHT22;10399;50.754;3.366;2023-04-03T08:51:00;11.70;99.90
20481;DHT22;10399;50.754;3.366;2023-04-03T08:53:40;11.60;99.90
20481;DHT22;10399;50.754;3.366;2023-04-03T08:56:10;11.90;99.90
20481;DHT22;10399;50.754;3.366;2023-04-03T08:58:59;11.80;99.90
20481;DHT22;10399;50.754;3.366;2023-04-03T09:04:13;11.70;99.90
20481;DHT22;10399;50.754;3.366;2023-04-03T09:06:45;12.10;99.90
20481;DHT22;10399;50.754;3.366;2023-04-03T09:09:16;12.20;99.90
20481;DHT22;10399;50.754;3.366;2023-04-03T09:20:11;13.00;99.90
20481;DHT22;10399;50.754;3.366;2023-04-03T09:22:44;13.20;99.90
20481;DHT22;10399;50.754;3.366;2023-04-03T09:25:36;13.40;99.90
20481;DHT22;10399;50.754;3.366;2023-04-03T09:28:04;13.00;99.90
20481;DHT22;10399;50.754;3.366;2023-04-03T09:30:37;13.00;99.90
20481;DHT22;10399;50.754;3.366;2023-04-03T09:33:05;12.80;99.90
20481;DHT22;10399;50.754;3.366;2023-04-03T09:35:36;13.10;99.90
20481;DHT22;10399;50.754;3.366;2023-04-03T09:38:15;13.20;99.90
20481;DHT22;10399;50.754;3.366;2023-04-03T09:40:50;13.50;99.90
20481;DHT22;10399;50.754;3.366;2023-04-03T09:43:23;13.60;99.90
20481;DHT22;10399;50.754;3.366;2023-04-03T09:45:51;13.70;99.90
20481;DHT22;10399;50.754;3.366;2023-04-03T09:48:21;13.80;99.90
20481;DHT22;10399;50.754;3.366;2023-04-03T09:55:59;14.00;99.90
20481;DHT22;10399;50.754;3.366;2023-04-03T09:58:40;14.10;99.90
20481;DHT22;10399;50.754;3.366;2023-04-03T10:01:32;14.20;99.90
20481;DHT22;10399;50.754;3.366;2023-04-03T10:04:25;14.20;99.90
20481;DHT22;10399;50.754;3.366;2023-04-03T10:06:54;14.60;99.90
20481;DHT22;10399;50.754;3.366;2023-04-03T10:09:27;14.70;99.90
20481;DHT22;10399;50.754;3.366;2023-04-03T10:12:11;14.80;99.90
20481;DHT22;10399;50.754;3.366;2023-04-03T10:14:59;14.80;99.90
20481;DHT22;10399;50.754;3.366;2023-04-03T10:17:32;15.00;99.90
20481;DHT22;10399;50.754;3.366;2023-04-03T10:28:33;14.80;99.90
20481;DHT22;10399;50.754;3.366;2023-04-03T10:42:18;15.00;99.90
20481;DHT22;10399;50.754;3.366;2023-04-03T10:50:52;15.30;99.90
20481;DHT22;10399;50.754;3.366;2023-04-03T10:53:30;14.90;99.90
20481;DHT22;10399;50.754;3.366;2023-04-03T10:58:54;15.30;99.90
20481;DHT22;10399;50.754;3.366;2023-04-03T11:01:33;15.70;99.90
20481;DHT22;10399;50.754;3.366;2023-04-03T11:04:04;15.90;99.90
20481;DHT22;10399;50.754;3.366;2023-04-03T11:09:50;16.20;99.90
20481;DHT22;10399;50.754;3.366;2023-04-03T11:12:28;15.80;99.90
20481;DHT22;10399;50.754;3.366;2023-04-03T11:15:02;15.50;99.90
20481;DHT22;10399;50.754;3.366;2023-04-03T11:17:48;15.70;99.90
20481;DHT22;10399;50.754;3.366;2023-04-03T11:20:28;16.00;99.90
20481;DHT22;10399;50.754;3.366;2023-04-03T11:23:21;16.10;99.90
20481;DHT22;10399;50.754;3.366;2023-04-03T11:25:53;16.30;99.90
20481;DHT22;10399;50.754;3.366;2023-04-03T11:28:20;16.60;99.90
20481;DHT22;10399;50.754;3.366;2023-04-03T11:34:08;16.90;99.90
20481;DHT22;10399;50.754;3.366;2023-04-03T11:36:57;16.90;99.90
20481;DHT22;10399;50.754;3.366;2023-04-03T11:39:31;16.70;99.90
20481;DHT22;10399;50.754;3.366;2023-04-03T11:42:20;16.80;99.90
20481;DHT22;10399;50.754;3.366;2023-04-03T11:50:54;16.90;99.90
20481;DHT22;10399;50.754;3.366;2023-04-03T11:53:32;16.80;99.90
20481;DHT22;10399;50.754;3.366;2023-04-03T11:56:26;16.90;99.90
20481;DHT22;10399;50.754;3.366;2023-04-03T11:59:23;17.00;99.90
20481;DHT22;10399;50.754;3.366;2023-04-03T12:01:52;17.60;99.90
20481;DHT22;10399;50.754;3.366;2023-04-03T12:04:23;17.90;99.90
20481;DHT22;10399;50.754;3.366;2023-04-03T12:06:59;17.80;99.90
20481;DHT22;10399;50.754;3.366;2023-04-03T12:09:54;17.90;99.90
20481;DHT22;10399;50.754;3.366;2023-04-03T12:12:35;18.20;99.90
20481;DHT22;10399;50.754;3.366;2023-04-03T12:15:25;18.50;99.90
20481;DHT22;10399;50.754;3.366;2023-04-03T12:17:53;18.50;99.90
20481;DHT22;10399;50.754;3.366;2023-04-03T12:23:35;18.20;98.40
20481;DHT22;10399;50.754;3.366;2023-04-03T12:26:08;17.70;97.90
20481;DHT22;10399;50.754;3.366;2023-04-03T12:28:47;17.10;98.40
20481;DHT22;10399;50.754;3.366;2023-04-03T12:31:15;17.30;99.90
20481;DHT22;10399;50.754;3.366;2023-04-03T12:37:17;17.80;99.90
20481;DHT22;10399;50.754;3.366;2023-04-03T12:45:23;17.50;99.50
20481;DHT22;10399;50.754;3.366;2023-04-03T12:47:53;17.50;97.50
20481;DHT22;10399;50.754;3.366;2023-04-03T12:53:06;18.00;95.70
20481;DHT22;10399;50.754;3.366;2023-04-03T12:55:34;18.20;96.40
20481;DHT22;10399;50.754;3.366;2023-04-03T12:58:24;17.90;94.30
20481;DHT22;10399;50.754;3.366;2023-04-03T13:01:03;17.80;97.80
20481;DHT22;10399;50.754;3.366;2023-04-03T13:03:30;17.90;97.80
20481;DHT22;10399;50.754;3.366;2023-04-03T13:06:02;17.80;96.30
20481;DHT22;10399;50.754;3.366;2023-04-03T13:08:30;18.20;96.10
20481;DHT22;10399;50.754;3.366;2023-04-03T13:11:06;18.50;94.60
20481;DHT22;10399;50.754;3.366;2023-04-03T13:13:37;18.70;96.00
20481;DHT22;10399;50.754;3.366;2023-04-03T13:16:11;18.40;94.40
20481;DHT22;10399;50.754;3.366;2023-04-03T13:18:40;19.10;95.00
20481;DHT22;10399;50.754;3.366;2023-04-03T13:23:43;19.40;94.50
20481;DHT22;10399;50.754;3.366;2023-04-03T13:26:11;19.50;93.70
20481;DHT22;10399;50.754;3.366;2023-04-03T13:28:40;19.10;91.60
20481;DHT22;10399;50.754;3.366;2023-04-03T13:34:16;19.10;92.20
20481;DHT22;10399;50.754;3.366;2023-04-03T13:36:59;19.20;92.50
20481;DHT22;10399;50.754;3.366;2023-04-03T13:39:32;19.10;90.20
20481;DHT22;10399;50.754;3.366;2023-04-03T13:42:23;19.30;91.40
20481;DHT22;10399;50.754;3.366;2023-04-03T13:45:11;19.50;91.30
20481;DHT22;10399;50.754;3.366;2023-04-03T13:47:44;20.00;90.70
20481;DHT22;10399;50.754;3.366;2023-04-03T13:50:13;19.10;90.80
20481;DHT22;10399;50.754;3.366;2023-04-03T13:53:20;19.50;91.00
20481;DHT22;10399;50.754;3.366;2023-04-03T13:56:00;19.80;91.00
20481;DHT22;10399;50.754;3.366;2023-04-03T13:58:32;19.20;90.50
20481;DHT22;10399;50.754;3.366;2023-04-03T14:01:17;19.50;90.20
20481;DHT22;10399;50.754;3.366;2023-04-03T14:06:20;19.10;90.00
20481;DHT22;10399;50.754;3.366;2023-04-03T14:08:48;19.00;89.60
20481;DHT22;10399;50.754;3.366;2023-04-03T14:11:17;19.50;88.70
20481;DHT22;10399;50.754;3.366;2023-04-03T14:13:46;19.80;88.50
20481;DHT22;10399;50.754;3.366;2023-04-03T14:16:16;19.80;88.60
20481;DHT22;10399;50.754;3.366;2023-04-03T14:18:46;19.90;86.70
20481;DHT22;10399;50.754;3.366;2023-04-03T14:21:15;19.70;87.80
20481;DHT22;10399;50.754;3.366;2023-04-03T14:23:42;19.90;88.70
20481;DHT22;10399;50.754;3.366;2023-04-03T14:26:15;19.50;86.60
20481;DHT22;10399;50.754;3.366;2023-04-03T14:28:46;19.80;86.70
20481;DHT22;10399;50.754;3.366;2023-04-03T14:31:14;19.80;86.70
20481;DHT22;10399;50.754;3.366;2023-04-03T14:33:45;19.90;85.20
20481;DHT22;10399;50.754;3.366;2023-04-03T14:36:14;19.60;85.60
20481;DHT22;10399;50.754;3.366;2023-04-03T14:38:43;19.60;86.90
20481;DHT22;10399;50.754;3.366;2023-04-03T14:41:13;19.70;83.90
20481;DHT22;10399;50.754;3.366;2023-04-03T14:43:43;19.50;86.60
20481;DHT22;10399;50.754;3.366;2023-04-03T14:46:24;19.10;87.10
20481;DHT22;10399;50.754;3.366;2023-04-03T14:49:14;19.20;84.90
20481;DHT22;10399;50.754;3.366;2023-04-03T14:51:41;19.30;82.10
20481;DHT22;10399;50.754;3.366;2023-04-03T14:54:21;19.40;82.70
20481;DHT22;10399;50.754;3.366;2023-04-03T14:56:52;19.50;84.70
20481;DHT22;10399;50.754;3.366;2023-04-03T14:59:20;19.20;81.70
20481;DHT22;10399;50.754;3.366;2023-04-03T15:01:48;19.20;81.00
20481;DHT22;10399;50.754;3.366;2023-04-03T15:04:18;19.20;83.40
20481;DHT22;10399;50.754;3.366;2023-04-03T15:06:47;19.40;82.70
20481;DHT22;10399;50.754;3.366;2023-04-03T15:09:25;19.50;80.10
20481;DHT22;10399;50.754;3.366;2023-04-03T15:11:54;19.20;81.90
20481;DHT22;10399;50.754;3.366;2023-04-03T15:14:22;19.50;81.60
20481;DHT22;10399;50.754;3.366;2023-04-03T15:17:08;19.60;78.00
20481;DHT22;10399;50.754;3.366;2023-04-03T15:19:38;19.20;78.50
20481;DHT22;10399;50.754;3.366;2023-04-03T15:22:08;18.90;79.80
20481;DHT22;10399;50.754;3.366;2023-04-03T15:24:37;18.90;80.00
20481;DHT22;10399;50.754;3.366;2023-04-03T15:27:05;18.80;78.60
20481;DHT22;10399;50.754;3.366;2023-04-03T15:29:32;18.70;80.10
20481;DHT22;10399;50.754;3.366;2023-04-03T15:31:59;18.90;80.60
20481;DHT22;10399;50.754;3.366;2023-04-03T15:34:26;18.90;81.70
20481;DHT22;10399;50.754;3.366;2023-04-03T15:36:54;19.00;79.80
20481;DHT22;10399;50.754;3.366;2023-04-03T15:39:21;18.70;80.20
20481;DHT22;10399;50.754;3.366;2023-04-03T15:41:49;18.40;81.40
20481;DHT22;10399;50.754;3.366;2023-04-03T15:44:18;18.30;79.80
20481;DHT22;10399;50.754;3.366;2023-04-03T15:46:47;18.50;79.20
20481;DHT22;10399;50.754;3.366;2023-04-03T15:49:16;18.60;77.50
20481;DHT22;10399;50.754;3.366;2023-04-03T15:51:43;18.60;78.50
20481;DHT22;10399;50.754;3.366;2023-04-03T15:54:10;18.20;78.20
20481;DHT22;10399;50.754;3.366;2023-04-03T15:56:37;18.30;77.90
20481;DHT22;10399;50.754;3.366;2023-04-03T15:59:03;18.40;79.00
20481;DHT22;10399;50.754;3.366;2023-04-03T16:01:31;18.30;76.90
20481;DHT22;10399;50.754;3.366;2023-04-03T16:03:58;18.00;77.70
20481;DHT22;10399;50.754;3.366;2023-04-03T16:06:25;17.60;77.70
20481;DHT22;10399;50.754;3.366;2023-04-03T16:08:56;17.20;77.70
20481;DHT22;10399;50.754;3.366;2023-04-03T16:11:25;17.10;79.60
20481;DHT22;10399;50.754;3.366;2023-04-03T16:13:53;16.80;80.80
20481;DHT22;10399;50.754;3.366;2023-04-03T16:16:21;16.90;80.60
20481;DHT22;10399;50.754;3.366;2023-04-03T16:18:49;16.80;81.80
20481;DHT22;10399;50.754;3.366;2023-04-03T16:21:17;16.60;80.90
20481;DHT22;10399;50.754;3.366;2023-04-03T16:23:44;16.60;81.40
20481;DHT22;10399;50.754;3.366;2023-04-03T16:26:11;16.30;82.30
20481;DHT22;10399;50.754;3.366;2023-04-03T16:28:39;16.10;83.10
20481;DHT22;10399;50.754;3.366;2023-04-03T16:31:07;15.80;82.60
20481;DHT22;10399;50.754;3.366;2023-04-03T16:33:34;15.70;84.30
20481;DHT22;10399;50.754;3.366;2023-04-03T16:36:04;15.60;83.70
20481;DHT22;10399;50.754;3.366;2023-04-03T16:38:31;15.40;85.30
20481;DHT22;10399;50.754;3.366;2023-04-03T16:40:59;15.10;87.00
20481;DHT22;10399;50.754;3.366;2023-04-03T16:43:29;15.00;85.30
20481;DHT22;10399;50.754;3.366;2023-04-03T16:45:56;14.80;86.70
20481;DHT22;10399;50.754;3.366;2023-04-03T16:48:23;14.70;88.10
20481;DHT22;10399;50.754;3.366;2023-04-03T16:50:50;14.50;87.90
20481;DHT22;10399;50.754;3.366;2023-04-03T16:53:23;14.30;88.60
20481;DHT22;10399;50.754;3.366;2023-04-03T16:55:51;14.00;88.30
20481;DHT22;10399;50.754;3.366;2023-04-03T16:58:18;14.10;88.50
20481;DHT22;10399;50.754;3.366;2023-04-03T17:00:49;14.10;89.30
20481;DHT22;10399;50.754;3.366;2023-04-03T17:03:16;14.10;90.10
20481;DHT22;10399;50.754;3.366;2023-04-03T17:05:47;13.80;90.50
20481;DHT22;10399;50.754;3.366;2023-04-03T17:08:15;13.70;91.60
20481;DHT22;10399;50.754;3.366;2023-04-03T17:10:42;13.60;91.80
20481;DHT22;10399;50.754;3.366;2023-04-03T17:13:09;13.60;91.40
20481;DHT22;10399;50.754;3.366;2023-04-03T17:15:37;13.40;91.60
20481;DHT22;10399;50.754;3.366;2023-04-03T17:18:04;13.30;92.50
20481;DHT22;10399;50.754;3.366;2023-04-03T17:20:32;13.20;93.00
20481;DHT22;10399;50.754;3.366;2023-04-03T17:23:00;13.00;92.00